Time,TemperatureF,DewpointF,PressureIn,WindDirection,WindDirectionDegrees,WindSpeedMPH,WindSpeedGustMPH,Humidity,HourlyPrecipIn,Conditions,Clouds,dailyrainin,SolarRadiationWatts/m^2,UVIndex,SoftwareType,DateUTC
2026-09-02 00:04:56,75.9,73.2,30.04,ESE,117,1.1,1.2,91.3,0.00,,,0.00,0,0,n/a,2026-09-02T04:04:56Z
2026-09-02 00:09:58,75.7,72.9,30.04,ESE,117,0.6,2.3,91,0.00,,,0.00,0,0,n/a,2026-09-02T04:09:58Z
2026-09-02 00:14:59,75.6,73,30.04,SSE,151,0.3,2.3,91.4,0.00,,,0.00,0,0,n/a,2026-09-02T04:14:59Z
2026-09-02 00:19:56,75.6,73.1,30.04,South,175,0.2,2.3,92,0.00,,,0.00,0,0,n/a,2026-09-02T04:19:56Z
2026-09-02 00:24:58,75.5,72.9,30.04,SSE,150,0,2.3,91.7,0.00,,,0.00,0,0,n/a,2026-09-02T04:24:58Z
2026-09-02 00:29:57,75.5,73,30.04,SSE,150,0.1,2.3,92,0.00,,,0.00,0,0,n/a,2026-09-02T04:29:57Z
2026-09-02 00:34:56,75.6,73.1,30.04,SSE,150,0,2.3,92,0.00,,,0.00,0,0,n/a,2026-09-02T04:34:56Z
2026-09-02 00:39:59,75.6,73.1,30.04,SSE,150,0.8,2.3,92,0.00,,,0.00,0,0,n/a,2026-09-02T04:39:59Z
2026-09-02 00:44:55,75.5,72.9,30.05,SSE,151,0.8,1.2,91.8,0.00,,,0.00,0,0,n/a,2026-09-02T04:44:55Z
2026-09-02 00:49:59,75.4,72.9,30.05,SSE,163,0.6,2.3,91.9,0.00,,,0.00,0,0,n/a,2026-09-02T04:49:59Z
2026-09-02 00:54:59,75.3,72.7,30.05,South,179,0.2,2.3,91.8,0.00,,,0.00,0,0,n/a,2026-09-02T04:54:59Z
2026-09-02 00:59:57,75.3,72.8,30.05,SSW,194,0,2.3,92,0.00,,,0.00,0,0,n/a,2026-09-02T04:59:57Z
2026-09-02 01:04:56,75.3,72.8,30.05,South,173,0.2,1.2,92,0.00,,,0.00,0,0,n/a,2026-09-02T05:04:56Z
2026-09-02 01:09:56,75.3,72.8,30.05,South,178,0.3,2.3,92,0.00,,,0.00,0,0,n/a,2026-09-02T05:09:56Z
2026-09-02 01:14:59,75.3,72.8,30.06,South,174,0,0,92,0.00,,,0.00,0,0,n/a,2026-09-02T05:14:59Z
2026-09-02 01:19:58,75.2,72.7,30.06,South,174,0,1.2,92,0.00,,,0.00,0,0,n/a,2026-09-02T05:19:58Z
2026-09-02 01:24:57,75.3,72.8,30.06,South,174,0.2,2.3,92,0.00,,,0.00,0,0,n/a,2026-09-02T05:24:57Z
2026-09-02 01:29:56,75.3,72.8,30.06,South,173,0,2.3,92.1,0.00,,,0.00,0,0,n/a,2026-09-02T05:29:56Z
2026-09-02 01:34:59,75.3,73.1,30.06,South,174,0.1,2.3,92.8,0.00,,,0.00,0,0,n/a,2026-09-02T05:34:59Z
2026-09-02 01:39:56,75.3,72.8,30.06,SSW,200,0,1.2,92,0.00,,,0.00,0,0,n/a,2026-09-02T05:39:56Z
2026-09-02 01:44:56,75.3,72.8,30.06,SSW,201,0.1,1.2,92,0.00,,,0.00,0,0,n/a,2026-09-02T05:44:56Z
2026-09-02 01:49:57,75.3,73,30.06,SSW,201,0,0,92.5,0.00,,,0.00,0,0,n/a,2026-09-02T05:49:57Z
2026-09-02 01:54:58,75.3,72.8,30.06,SSW,201,0.1,2.3,92,0.00,,,0.00,0,0,n/a,2026-09-02T05:54:58Z
2026-09-02 01:59:58,75.2,72.8,30.06,SSW,201,0.1,2.3,92.2,0.00,,,0.00,0,0,n/a,2026-09-02T05:59:58Z
2026-09-02 02:04:57,75.2,73,30.06,SSW,201,0,1.2,93,0.00,,,0.00,0,0,n/a,2026-09-02T06:04:57Z
2026-09-02 02:09:58,75.3,73.1,30.06,SSW,201,0,0,93,0.00,,,0.00,0,0,n/a,2026-09-02T06:09:58Z
2026-09-02 02:14:56,75.3,73.1,30.06,SSW,201,0,0,93,0.00,,,0.00,0,0,n/a,2026-09-02T06:14:56Z
2026-09-02 02:19:59,75.2,72.7,30.06,SSW,201,0,0,92.1,0.00,,,0.00,0,0,n/a,2026-09-02T06:19:59Z
2026-09-02 02:24:58,75.1,72.7,30.06,SSW,201,0,0,92.4,0.00,,,0.00,0,0,n/a,2026-09-02T06:24:58Z
2026-09-02 02:29:59,75.1,72.9,30.06,SSW,201,0,0,93,0.00,,,0.00,0,0,n/a,2026-09-02T06:29:59Z
2026-09-02 02:34:59,75.1,72.9,30.06,SSW,201,0,0,93,0.00,,,0.00,0,0,n/a,2026-09-02T06:34:59Z
2026-09-02 02:39:59,75,72.8,30.06,SSW,201,0,0,93,0.00,,,0.00,0,0,n/a,2026-09-02T06:39:59Z
2026-09-02 02:44:56,75,72.8,30.06,SSW,201,0,0,93,0.00,,,0.00,0,0,n/a,2026-09-02T06:44:56Z
2026-09-02 02:49:57,74.9,72.4,30.06,SSW,201,0,0,92.2,0.00,,,0.00,0,0,n/a,2026-09-02T06:49:57Z
2026-09-02 02:54:59,74.8,72.4,30.06,SSW,201,0,0,92.4,0.00,,,0.00,0,0,n/a,2026-09-02T06:54:59Z
2026-09-02 02:59:58,74.8,72.6,30.06,SSW,201,0,2.3,93,0.00,,,0.00,0,0,n/a,2026-09-02T06:59:58Z
2026-09-02 03:04:58,74.8,72.6,30.06,SSW,201,0.1,2.3,93,0.00,,,0.00,0,0,n/a,2026-09-02T07:04:58Z
2026-09-02 03:09:58,74.8,72.6,30.06,SSW,201,0.1,2.3,93,0.00,,,0.00,0,0,n/a,2026-09-02T07:09:58Z
2026-09-02 03:14:57,74.7,72.5,30.06,SSW,201,0,2.3,93,0.00,,,0.00,0,0,n/a,2026-09-02T07:14:57Z
2026-09-02 03:19:57,74.6,72.4,30.05,SSW,201,0,0,93,0.00,,,0.00,0,0,n/a,2026-09-02T07:19:57Z
2026-09-02 03:24:59,74.5,72.3,30.05,SSW,201,0,0,93,0.00,,,0.00,0,0,n/a,2026-09-02T07:24:59Z
2026-09-02 03:29:57,74.4,72.2,30.06,SSW,201,0.1,2.3,93,0.00,,,0.00,0,0,n/a,2026-09-02T07:29:57Z
2026-09-02 03:34:59,74.4,72.2,30.06,SSW,201,0,0,93,0.00,,,0.00,0,0,n/a,2026-09-02T07:34:59Z
2026-09-02 03:39:59,74.3,72.1,30.06,SSW,201,0.1,2.3,93,0.00,,,0.00,0,0,n/a,2026-09-02T07:39:59Z
2026-09-02 03:44:56,74.4,72.5,30.06,SSW,201,0.1,2.3,93.7,0.00,,,0.00,0,0,n/a,2026-09-02T07:44:56Z
2026-09-02 03:49:57,74.4,72.2,30.05,SSW,201,0.2,2.3,93,0.00,,,0.00,0,0,n/a,2026-09-02T07:49:57Z
2026-09-02 03:54:58,74.4,72.2,30.05,SSW,201,0,0,93,0.00,,,0.00,0,0,n/a,2026-09-02T07:54:58Z
2026-09-02 03:59:59,74.3,72.1,30.05,SSW,201,0,0,93,0.00,,,0.00,0,0,n/a,2026-09-02T07:59:59Z
2026-09-02 04:04:57,74.3,72.1,30.05,SSW,201,0,0,93,0.00,,,0.00,0,0,n/a,2026-09-02T08:04:57Z
2026-09-02 04:09:57,74.2,72,30.05,SSW,201,0.2,2.3,93,0.00,,,0.00,0,0,n/a,2026-09-02T08:09:57Z
2026-09-02 04:14:58,74.2,72,30.05,SSW,201,0,2.3,93,0.00,,,0.00,0,0,n/a,2026-09-02T08:14:58Z
2026-09-02 04:19:56,74.1,71.9,30.05,SSW,201,0,1.2,93,0.00,,,0.00,0,0,n/a,2026-09-02T08:19:56Z
2026-09-02 04:24:56,74.1,71.9,30.05,SSW,201,0,0,93,0.00,,,0.00,0,0,n/a,2026-09-02T08:24:56Z
2026-09-02 04:29:58,74.1,71.8,30.05,SSW,201,0,0,93,0.00,,,0.00,0,0,n/a,2026-09-02T08:29:58Z
2026-09-02 04:34:56,74.1,72.2,30.05,SSW,201,0.2,2.3,93.8,0.00,,,0.00,0,0,n/a,2026-09-02T08:34:56Z
2026-09-02 04:39:58,74.1,72.3,30.05,SSW,201,0,2.3,94,0.00,,,0.00,0,0,n/a,2026-09-02T08:39:58Z
2026-09-02 04:44:59,74,72.1,30.05,SSW,201,0.1,2.3,93.6,0.00,,,0.00,0,0,n/a,2026-09-02T08:44:59Z
2026-09-02 04:49:55,74,71.9,30.05,SSW,201,0.2,1.2,93.2,0.00,,,0.00,0,0,n/a,2026-09-02T08:49:55Z
2026-09-02 04:54:59,74,71.8,30.05,SSW,201,0.1,2.3,93,0.00,,,0.00,0,0,n/a,2026-09-02T08:54:59Z
2026-09-02 04:59:57,73.9,72,30.05,SSW,201,0.2,2.3,93.6,0.00,,,0.00,0,0,n/a,2026-09-02T08:59:57Z
2026-09-02 05:04:59,73.9,72.1,30.05,SSW,201,0,0,94,0.00,,,0.00,0,0,n/a,2026-09-02T09:04:59Z
2026-09-02 05:09:59,73.8,72,30.05,SSW,201,0,2.3,94,0.00,,,0.00,0,0,n/a,2026-09-02T09:09:59Z
2026-09-02 05:14:59,73.7,71.9,30.05,SW,219,0.3,2.3,94,0.00,,,0.00,0,0,n/a,2026-09-02T09:14:59Z